sensor_id;sensor_type;location;lat;lon;timestamp;P1;durP1;ratioP1;P2;durP2;ratioP2
20802;SDS011;10562;-33.856;151.182;2023-05-18T00:01:49;26.92;;;24.40;;
20802;SDS011;10562;-33.856;151.182;2023-05-18T00:04:20;17.00;;;15.63;;
20802;SDS011;10562;-33.856;151.182;2023-05-18T00:06:51;12.95;;;11.60;;
20802;SDS011;10562;-33.856;151.182;2023-05-18T00:09:24;13.30;;;11.15;;
20802;SDS011;10562;-33.856;151.182;2023-05-18T00:11:54;12.13;;;7.05;;
20802;SDS011;10562;-33.856;151.182;2023-05-18T00:14:26;9.25;;;4.97;;
20802;SDS011;10562;-33.856;151.182;2023-05-18T00:17:00;8.25;;;3.63;;
20802;SDS011;10562;-33.856;151.182;2023-05-18T00:19:30;5.78;;;3.30;;
20802;SDS011;10562;-33.856;151.182;2023-05-18T00:22:01;6.80;;;3.22;;
20802;SDS011;10562;-33.856;151.182;2023-05-18T00:24:33;6.57;;;3.13;;
20802;SDS011;10562;-33.856;151.182;2023-05-18T00:27:04;7.60;;;2.70;;
20802;SDS011;10562;-33.856;151.182;2023-05-18T00:29:35;5.78;;;2.50;;
20802;SDS011;10562;-33.856;151.182;2023-05-18T00:32:10;5.00;;;2.45;;
20802;SDS011;10562;-33.856;151.182;2023-05-18T00:34:42;5.43;;;2.47;;
20802;SDS011;10562;-33.856;151.182;2023-05-18T00:37:13;5.00;;;2.30;;
20802;SDS011;10562;-33.856;151.182;2023-05-18T00:39:44;5.68;;;2.10;;
20802;SDS011;10562;-33.856;151.182;2023-05-18T00:42:15;8.90;;;2.50;;
20802;SDS011;10562;-33.856;151.182;2023-05-18T00:44:46;5.40;;;2.13;;
20802;SDS011;10562;-33.856;151.182;2023-05-18T00:47:18;3.30;;;1.83;;
20802;SDS011;10562;-33.856;151.182;2023-05-18T00:49:49;5.50;;;2.00;;
20802;SDS011;10562;-33.856;151.182;2023-05-18T00:52:20;5.80;;;2.00;;
20802;SDS011;10562;-33.856;151.182;2023-05-18T00:54:52;7.38;;;1.63;;
20802;SDS011;10562;-33.856;151.182;2023-05-18T00:57:24;3.95;;;1.63;;
20802;SDS011;10562;-33.856;151.182;2023-05-18T00:59:55;4.00;;;1.70;;
20802;SDS011;10562;-33.856;151.182;2023-05-18T01:02:29;3.25;;;1.60;;
20802;SDS011;10562;-33.856;151.182;2023-05-18T01:05:02;4.85;;;1.50;;
20802;SDS011;10562;-33.856;151.182;2023-05-18T01:07:33;6.90;;;1.35;;
20802;SDS011;10562;-33.856;151.182;2023-05-18T01:10:04;3.20;;;1.50;;
20802;SDS011;10562;-33.856;151.182;2023-05-18T01:12:36;2.38;;;1.40;;
20802;SDS011;10562;-33.856;151.182;2023-05-18T01:15:14;6.18;;;1.60;;
20802;SDS011;10562;-33.856;151.182;2023-05-18T01:18:00;7.82;;;1.60;;
20802;SDS011;10562;-33.856;151.182;2023-05-18T01:20:36;6.10;;;1.65;;
20802;SDS011;10562;-33.856;151.182;2023-05-18T01:26:24;5.93;;;1.42;;
20802;SDS011;10562;-33.856;151.182;2023-05-18T01:28:57;4.95;;;1.40;;
20802;SDS011;10562;-33.856;151.182;2023-05-18T01:31:30;5.15;;;1.73;;
20802;SDS011;10562;-33.856;151.182;2023-05-18T01:34:01;5.28;;;1.65;;
20802;SDS011;10562;-33.856;151.182;2023-05-18T01:36:32;3.42;;;1.60;;
20802;SDS011;10562;-33.856;151.182;2023-05-18T01:39:03;5.07;;;1.52;;
20802;SDS011;10562;-33.856;151.182;2023-05-18T01:41:36;6.53;;;1.60;;
20802;SDS011;10562;-33.856;151.182;2023-05-18T01:44:12;3.50;;;1.40;;
20802;SDS011;10562;-33.856;151.182;2023-05-18T01:46:48;4.32;;;1.50;;
20802;SDS011;10562;-33.856;151.182;2023-05-18T01:49:26;4.78;;;1.48;;
20802;SDS011;10562;-33.856;151.182;2023-05-18T01:52:03;5.13;;;1.58;;
20802;SDS011;10562;-33.856;151.182;2023-05-18T01:54:37;5.25;;;1.30;;
20802;SDS011;10562;-33.856;151.182;2023-05-18T01:57:15;3.92;;;1.40;;
20802;SDS011;10562;-33.856;151.182;2023-05-18T01:59:49;3.30;;;1.00;;
20802;SDS011;10562;-33.856;151.182;2023-05-18T02:02:20;7.25;;;1.63;;
20802;SDS011;10562;-33.856;151.182;2023-05-18T02:04:53;5.20;;;1.60;;
20802;SDS011;10562;-33.856;151.182;2023-05-18T02:07:24;7.38;;;1.75;;
20802;SDS011;10562;-33.856;151.182;2023-05-18T02:09:54;5.75;;;2.58;;
20802;SDS011;10562;-33.856;151.182;2023-05-18T02:12:27;5.07;;;2.15;;
20802;SDS011;10562;-33.856;151.182;2023-05-18T02:14:58;5.78;;;1.50;;
20802;SDS011;10562;-33.856;151.182;2023-05-18T02:17:31;4.70;;;1.50;;
20802;SDS011;10562;-33.856;151.182;2023-05-18T02:20:03;4.65;;;1.30;;
20802;SDS011;10562;-33.856;151.182;2023-05-18T02:22:35;5.07;;;1.50;;
20802;SDS011;10562;-33.856;151.182;2023-05-18T02:25:06;5.25;;;1.52;;
20802;SDS011;10562;-33.856;151.182;2023-05-18T02:27:39;8.00;;;2.03;;
20802;SDS011;10562;-33.856;151.182;2023-05-18T02:30:10;5.95;;;2.22;;
20802;SDS011;10562;-33.856;151.182;2023-05-18T02:32:41;8.00;;;2.13;;
20802;SDS011;10562;-33.856;151.182;2023-05-18T02:35:15;7.70;;;1.90;;
20802;SDS011;10562;-33.856;151.182;2023-05-18T02:37:46;6.68;;;1.30;;
20802;SDS011;10562;-33.856;151.182;2023-05-18T02:40:16;5.13;;;1.90;;
20802;SDS011;10562;-33.856;151.182;2023-05-18T02:42:49;3.88;;;1.20;;
20802;SDS011;10562;-33.856;151.182;2023-05-18T02:45:20;4.35;;;1.52;;
20802;SDS011;10562;-33.856;151.182;2023-05-18T02:47:51;4.35;;;1.30;;
20802;SDS011;10562;-33.856;151.182;2023-05-18T02:50:21;3.10;;;1.38;;
20802;SDS011;10562;-33.856;151.182;2023-05-18T02:52:52;3.53;;;1.38;;
20802;SDS011;10562;-33.856;151.182;2023-05-18T02:55:26;6.43;;;1.33;;
20802;SDS011;10562;-33.856;151.182;2023-05-18T02:57:59;5.50;;;1.33;;
20802;SDS011;10562;-33.856;151.182;2023-05-18T03:00:30;6.53;;;1.30;;
20802;SDS011;10562;-33.856;151.182;2023-05-18T03:03:01;4.53;;;1.63;;
20802;SDS011;10562;-33.856;151.182;2023-05-18T03:05:31;5.68;;;1.40;;
20802;SDS011;10562;-33.856;151.182;2023-05-18T03:08:02;6.47;;;1.77;;
20802;SDS011;10562;-33.856;151.182;2023-05-18T03:10:35;3.47;;;1.40;;
20802;SDS011;10562;-33.856;151.182;2023-05-18T03:13:08;4.53;;;1.33;;
20802;SDS011;10562;-33.856;151.182;2023-05-18T03:15:38;6.05;;;1.20;;
20802;SDS011;10562;-33.856;151.182;2023-05-18T03:18:11;6.10;;;1.40;;
20802;SDS011;10562;-33.856;151.182;2023-05-18T03:20:42;4.35;;;1.10;;
20802;SDS011;10562;-33.856;151.182;2023-05-18T03:23:13;6.50;;;1.40;;
20802;SDS011;10562;-33.856;151.182;2023-05-18T03:25:43;6.80;;;1.60;;
20802;SDS011;10562;-33.856;151.182;2023-05-18T03:28:20;6.72;;;1.80;;
20802;SDS011;10562;-33.856;151.182;2023-05-18T03:30:51;7.68;;;1.60;;
20802;SDS011;10562;-33.856;151.182;2023-05-18T03:33:22;3.67;;;1.45;;
20802;SDS011;10562;-33.856;151.182;2023-05-18T03:35:53;8.15;;;1.83;;
20802;SDS011;10562;-33.856;151.182;2023-05-18T03:38:24;6.57;;;1.70;;
20802;SDS011;10562;-33.856;151.182;2023-05-18T03:40:55;7.47;;;1.60;;
20802;SDS011;10562;-33.856;151.182;2023-05-18T03:43:27;5.70;;;1.63;;
20802;SDS011;10562;-33.856;151.182;2023-05-18T03:45:58;7.30;;;1.70;;
20802;SDS011;10562;-33.856;151.182;2023-05-18T03:48:29;6.68;;;1.88;;
20802;SDS011;10562;-33.856;151.182;2023-05-18T03:51:00;7.05;;;1.80;;
20802;SDS011;10562;-33.856;151.182;2023-05-18T03:53:31;10.20;;;1.40;;
20802;SDS011;10562;-33.856;151.182;2023-05-18T03:56:02;7.65;;;1.48;;
20802;SDS011;10562;-33.856;151.182;2023-05-18T03:58:34;5.55;;;1.60;;
20802;SDS011;10562;-33.856;151.182;2023-05-18T04:01:05;6.20;;;2.70;;
20802;SDS011;10562;-33.856;151.182;2023-05-18T04:03:36;7.60;;;2.20;;
20802;SDS011;10562;-33.856;151.182;2023-05-18T04:06:07;4.53;;;1.20;;
20802;SDS011;10562;-33.856;151.182;2023-05-18T04:08:38;5.30;;;1.20;;
20802;SDS011;10562;-33.856;151.182;2023-05-18T04:11:11;3.55;;;1.30;;
20802;SDS011;10562;-33.856;151.182;2023-05-18T04:13:43;4.70;;;1.20;;
20802;SDS011;10562;-33.856;151.182;2023-05-18T04:16:14;5.75;;;1.50;;
20802;SDS011;10562;-33.856;151.182;2023-05-18T04:18:47;3.80;;;1.00;;
20802;SDS011;10562;-33.856;151.182;2023-05-18T04:21:17;3.72;;;1.13;;
20802;SDS011;10562;-33.856;151.182;2023-05-18T04:23:48;8.68;;;1.25;;
20802;SDS011;10562;-33.856;151.182;2023-05-18T04:26:19;5.90;;;1.08;;
20802;SDS011;10562;-33.856;151.182;2023-05-18T04:28:51;5.07;;;1.30;;
20802;SDS011;10562;-33.856;151.182;2023-05-18T04:31:25;5.40;;;1.20;;
20802;SDS011;10562;-33.856;151.182;2023-05-18T04:33:56;4.68;;;1.23;;
20802;SDS011;10562;-33.856;151.182;2023-05-18T04:36:27;5.82;;;1.27;;
20802;SDS011;10562;-33.856;151.182;2023-05-18T04:38:57;5.38;;;1.20;;
20802;SDS011;10562;-33.856;151.182;2023-05-18T04:41:32;5.45;;;1.10;;
20802;SDS011;10562;-33.856;151.182;2023-05-18T04:44:05;6.68;;;1.30;;
20802;SDS011;10562;-33.856;151.182;2023-05-18T04:46:39;4.32;;;1.23;;
20802;SDS011;10562;-33.856;151.182;2023-05-18T04:49:12;6.97;;;1.70;;
20802;SDS011;10562;-33.856;151.182;2023-05-18T04:51:43;5.45;;;1.40;;
20802;SDS011;10562;-33.856;151.182;2023-05-18T04:54:15;4.63;;;1.45;;
20802;SDS011;10562;-33.856;151.182;2023-05-18T04:56:46;5.57;;;1.50;;
20802;SDS011;10562;-33.856;151.182;2023-05-18T04:59:18;5.65;;;1.13;;
20802;SDS011;10562;-33.856;151.182;2023-05-18T05:01:51;5.85;;;1.30;;
20802;SDS011;10562;-33.856;151.182;2023-05-18T05:04:22;8.18;;;1.50;;
20802;SDS011;10562;-33.856;151.182;2023-05-18T05:06:53;2.85;;;1.00;;
20802;SDS011;10562;-33.856;151.182;2023-05-18T05:09:23;4.50;;;1.05;;
20802;SDS011;10562;-33.856;151.182;2023-05-18T05:11:54;2.63;;;1.08;;
20802;SDS011;10562;-33.856;151.182;2023-05-18T05:14:27;3.53;;;1.10;;
20802;SDS011;10562;-33.856;151.182;2023-05-18T05:16:59;5.57;;;1.30;;
20802;SDS011;10562;-33.856;151.182;2023-05-18T05:19:30;4.88;;;1.17;;
20802;SDS011;10562;-33.856;151.182;2023-05-18T05:22:01;5.95;;;1.10;;
20802;SDS011;10562;-33.856;151.182;2023-05-18T05:24:32;3.30;;;1.00;;
20802;SDS011;10562;-33.856;151.182;2023-05-18T05:27:03;5.35;;;1.38;;
20802;SDS011;10562;-33.856;151.182;2023-05-18T05:29:35;2.72;;;1.02;;
20802;SDS011;10562;-33.856;151.182;2023-05-18T05:32:06;5.75;;;0.95;;
20802;SDS011;10562;-33.856;151.182;2023-05-18T05:34:38;4.28;;;1.10;;
20802;SDS011;10562;-33.856;151.182;2023-05-18T05:37:12;4.65;;;1.17;;
20802;SDS011;10562;-33.856;151.182;2023-05-18T05:39:42;5.10;;;1.23;;
20802;SDS011;10562;-33.856;151.182;2023-05-18T05:42:13;7.97;;;1.23;;
20802;SDS011;10562;-33.856;151.182;2023-05-18T05:44:46;5.40;;;1.20;;
20802;SDS011;10562;-33.856;151.182;2023-05-18T05:47:16;9.45;;;1.13;;
20802;SDS011;10562;-33.856;151.182;2023-05-18T05:49:47;6.72;;;1.13;;
20802;SDS011;10562;-33.856;151.182;2023-05-18T05:52:18;10.23;;;1.20;;
20802;SDS011;10562;-33.856;151.182;2023-05-18T05:54:49;5.00;;;1.00;;
20802;SDS011;10562;-33.856;151.182;2023-05-18T05:57:20;6.22;;;1.10;;
20802;SDS011;10562;-33.856;151.182;2023-05-18T05:59:52;4.13;;;1.00;;
20802;SDS011;10562;-33.856;151.182;2023-05-18T06:02:23;5.25;;;0.80;;
20802;SDS011;10562;-33.856;151.182;2023-05-18T06:04:54;4.82;;;1.00;;
20802;SDS011;10562;-33.856;151.182;2023-05-18T06:07:25;3.47;;;0.90;;
20802;SDS011;10562;-33.856;151.182;2023-05-18T06:09:55;3.20;;;1.00;;
20802;SDS011;10562;-33.856;151.182;2023-05-18T06:12:26;5.65;;;1.20;;
20802;SDS011;10562;-33.856;151.182;2023-05-18T06:14:59;7.25;;;0.80;;
20802;SDS011;10562;-33.856;151.182;2023-05-18T06:17:30;6.30;;;1.02;;
20802;SDS011;10562;-33.856;151.182;2023-05-18T06:20:01;6.82;;;0.80;;
20802;SDS011;10562;-33.856;151.182;2023-05-18T06:22:32;5.10;;;1.00;;
20802;SDS011;10562;-33.856;151.182;2023-05-18T06:25:03;7.82;;;1.10;;
20802;SDS011;10562;-33.856;151.182;2023-05-18T06:27:35;5.15;;;0.90;;
20802;SDS011;10562;-33.856;151.182;2023-05-18T06:30:10;4.43;;;0.90;;
20802;SDS011;10562;-33.856;151.182;2023-05-18T06:32:41;4.15;;;1.00;;
20802;SDS011;10562;-33.856;151.182;2023-05-18T06:35:12;5.55;;;1.20;;
20802;SDS011;10562;-33.856;151.182;2023-05-18T06:37:43;5.80;;;1.20;;
20802;SDS011;10562;-33.856;151.182;2023-05-18T06:40:14;7.22;;;1.45;;
20802;SDS011;10562;-33.856;151.182;2023-05-18T06:42:45;8.77;;;1.48;;
20802;SDS011;10562;-33.856;151.182;2023-05-18T06:45:18;6.63;;;1.15;;
20802;SDS011;10562;-33.856;151.182;2023-05-18T06:47:49;5.75;;;1.20;;
20802;SDS011;10562;-33.856;151.182;2023-05-18T06:50:19;4.05;;;1.23;;
20802;SDS011;10562;-33.856;151.182;2023-05-18T06:52:50;3.85;;;1.08;;
20802;SDS011;10562;-33.856;151.182;2023-05-18T06:55:21;6.05;;;1.10;;
20802;SDS011;10562;-33.856;151.182;2023-05-18T06:57:52;7.20;;;1.08;;
20802;SDS011;10562;-33.856;151.182;2023-05-18T07:00:25;7.30;;;1.38;;
20802;SDS011;10562;-33.856;151.182;2023-05-18T07:02:56;5.68;;;1.17;;
20802;SDS011;10562;-33.856;151.182;2023-05-18T07:05:27;5.65;;;1.10;;
20802;SDS011;10562;-33.856;151.182;2023-05-18T07:07:57;4.82;;;1.20;;
20802;SDS011;10562;-33.856;151.182;2023-05-18T07:10:30;6.45;;;1.20;;
20802;SDS011;10562;-33.856;151.182;2023-05-18T07:13:00;6.75;;;1.10;;
20802;SDS011;10562;-33.856;151.182;2023-05-18T07:15:33;4.82;;;1.40;;
20802;SDS011;10562;-33.856;151.182;2023-05-18T07:18:04;6.70;;;1.73;;
20802;SDS011;10562;-33.856;151.182;2023-05-18T07:20:35;5.10;;;1.33;;
20802;SDS011;10562;-33.856;151.182;2023-05-18T07:23:06;8.13;;;1.50;;
20802;SDS011;10562;-33.856;151.182;2023-05-18T07:25:36;7.43;;;1.75;;
20802;SDS011;10562;-33.856;151.182;2023-05-18T07:28:07;3.97;;;1.20;;
20802;SDS011;10562;-33.856;151.182;2023-05-18T07:30:40;5.93;;;1.48;;
20802;SDS011;10562;-33.856;151.182;2023-05-18T07:33:11;5.57;;;1.67;;
20802;SDS011;10562;-33.856;151.182;2023-05-18T07:35:42;4.00;;;1.48;;
20802;SDS011;10562;-33.856;151.182;2023-05-18T07:38:12;5.80;;;1.50;;
20802;SDS011;10562;-33.856;151.182;2023-05-18T07:40:43;7.38;;;2.15;;
20802;SDS011;10562;-33.856;151.182;2023-05-18T07:43:14;11.35;;;2.30;;
20802;SDS011;10562;-33.856;151.182;2023-05-18T07:45:46;9.35;;;2.30;;
20802;SDS011;10562;-33.856;151.182;2023-05-18T07:48:17;9.20;;;2.28;;
20802;SDS011;10562;-33.856;151.182;2023-05-18T07:50:48;6.65;;;1.67;;
20802;SDS011;10562;-33.856;151.182;2023-05-18T07:53:19;5.80;;;1.70;;
20802;SDS011;10562;-33.856;151.182;2023-05-18T07:55:50;7.50;;;1.80;;
20802;SDS011;10562;-33.856;151.182;2023-05-18T07:58:20;3.25;;;1.45;;
20802;SDS011;10562;-33.856;151.182;2023-05-18T08:00:53;11.20;;;2.20;;
20802;SDS011;10562;-33.856;151.182;2023-05-18T08:03:24;5.18;;;1.98;;
20802;SDS011;10562;-33.856;151.182;2023-05-18T08:05:55;9.60;;;2.83;;
20802;SDS011;10562;-33.856;151.182;2023-05-18T08:08:25;7.75;;;2.22;;
20802;SDS011;10562;-33.856;151.182;2023-05-18T08:10:56;5.93;;;2.28;;
20802;SDS011;10562;-33.856;151.182;2023-05-18T08:13:27;7.47;;;2.28;;
20802;SDS011;10562;-33.856;151.182;2023-05-18T08:16:00;7.78;;;2.42;;
20802;SDS011;10562;-33.856;151.182;2023-05-18T08:18:31;13.27;;;3.15;;
20802;SDS011;10562;-33.856;151.182;2023-05-18T08:21:03;11.05;;;2.85;;
20802;SDS011;10562;-33.856;151.182;2023-05-18T08:23:34;12.23;;;3.42;;
20802;SDS011;10562;-33.856;151.182;2023-05-18T08:26:05;10.43;;;3.08;;
20802;SDS011;10562;-33.856;151.182;2023-05-18T08:28:38;10.55;;;4.22;;
20802;SDS011;10562;-33.856;151.182;2023-05-18T08:31:12;12.10;;;3.92;;
20802;SDS011;10562;-33.856;151.182;2023-05-18T08:33:43;7.10;;;3.92;;
20802;SDS011;10562;-33.856;151.182;2023-05-18T08:36:13;12.32;;;4.38;;
20802;SDS011;10562;-33.856;151.182;2023-05-18T08:38:44;8.15;;;4.53;;
20802;SDS011;10562;-33.856;151.182;2023-05-18T08:41:17;9.85;;;4.28;;
20802;SDS011;10562;-33.856;151.182;2023-05-18T08:43:52;11.63;;;4.82;;
20802;SDS011;10562;-33.856;151.182;2023-05-18T08:46:33;13.18;;;5.35;;
20802;SDS011;10562;-33.856;151.182;2023-05-18T08:49:08;12.88;;;6.15;;
20802;SDS011;10562;-33.856;151.182;2023-05-18T08:51:39;12.70;;;5.50;;
20802;SDS011;10562;-33.856;151.182;2023-05-18T08:54:14;17.38;;;5.60;;
20802;SDS011;10562;-33.856;151.182;2023-05-18T08:56:49;12.90;;;5.72;;
20802;SDS011;10562;-33.856;151.182;2023-05-18T08:59:23;12.88;;;6.63;;
20802;SDS011;10562;-33.856;151.182;2023-05-18T09:01:57;11.23;;;6.80;;
20802;SDS011;10562;-33.856;151.182;2023-05-18T09:04:28;11.95;;;5.95;;
20802;SDS011;10562;-33.856;151.182;2023-05-18T09:07:00;12.50;;;4.82;;
20802;SDS011;10562;-33.856;151.182;2023-05-18T09:09:31;12.85;;;6.15;;
20802;SDS011;10562;-33.856;151.182;2023-05-18T09:12:03;12.82;;;5.10;;
20802;SDS011;10562;-33.856;151.182;2023-05-18T09:14:35;11.65;;;5.97;;
20802;SDS011;10562;-33.856;151.182;2023-05-18T09:17:10;14.85;;;6.53;;
20802;SDS011;10562;-33.856;151.182;2023-05-18T09:19:41;10.68;;;6.38;;
20802;SDS011;10562;-33.856;151.182;2023-05-18T09:22:12;14.07;;;6.65;;
20802;SDS011;10562;-33.856;151.182;2023-05-18T09:24:43;10.40;;;7.13;;
20802;SDS011;10562;-33.856;151.182;2023-05-18T09:27:14;15.18;;;7.00;;
20802;SDS011;10562;-33.856;151.182;2023-05-18T09:29:51;12.98;;;7.15;;
20802;SDS011;10562;-33.856;151.182;2023-05-18T09:32:25;16.27;;;7.57;;
20802;SDS011;10562;-33.856;151.182;2023-05-18T09:34:56;11.77;;;6.05;;
20802;SDS011;10562;-33.856;151.182;2023-05-18T09:37:33;9.32;;;4.63;;
20802;SDS011;10562;-33.856;151.182;2023-05-18T09:40:06;9.45;;;4.80;;
20802;SDS011;10562;-33.856;151.182;2023-05-18T09:42:37;9.52;;;5.20;;
20802;SDS011;10562;-33.856;151.182;2023-05-18T09:45:18;8.95;;;4.25;;
20802;SDS011;10562;-33.856;151.182;2023-05-18T09:47:52;8.40;;;4.38;;
20802;SDS011;10562;-33.856;151.182;2023-05-18T09:50:23;5.75;;;3.53;;
20802;SDS011;10562;-33.856;151.182;2023-05-18T09:52:54;5.18;;;3.72;;
20802;SDS011;10562;-33.856;151.182;2023-05-18T09:55:25;8.70;;;3.63;;
20802;SDS011;10562;-33.856;151.182;2023-05-18T09:57:56;9.52;;;3.70;;
20802;SDS011;10562;-33.856;151.182;2023-05-18T10:00:28;7.45;;;4.45;;
20802;SDS011;10562;-33.856;151.182;2023-05-18T10:03:01;8.68;;;4.22;;
20802;SDS011;10562;-33.856;151.182;2023-05-18T10:05:32;7.35;;;3.90;;
20802;SDS011;10562;-33.856;151.182;2023-05-18T10:08:04;9.02;;;4.15;;
20802;SDS011;10562;-33.856;151.182;2023-05-18T10:10:40;7.15;;;3.97;;
20802;SDS011;10562;-33.856;151.182;2023-05-18T10:13:14;8.25;;;3.78;;
20802;SDS011;10562;-33.856;151.182;2023-05-18T10:15:51;9.35;;;4.35;;
20802;SDS011;10562;-33.856;151.182;2023-05-18T10:18:36;6.97;;;4.28;;
20802;SDS011;10562;-33.856;151.182;2023-05-18T10:21:09;5.75;;;4.47;;
20802;SDS011;10562;-33.856;151.182;2023-05-18T10:23:48;8.57;;;4.50;;
20802;SDS011;10562;-33.856;151.182;2023-05-18T10:26:41;8.68;;;4.05;;
20802;SDS011;10562;-33.856;151.182;2023-05-18T10:29:14;13.00;;;4.72;;
20802;SDS011;10562;-33.856;151.182;2023-05-18T10:31:45;9.07;;;5.15;;
20802;SDS011;10562;-33.856;151.182;2023-05-18T10:34:20;8.38;;;5.35;;
20802;SDS011;10562;-33.856;151.182;2023-05-18T10:36:52;6.20;;;5.20;;
20802;SDS011;10562;-33.856;151.182;2023-05-18T10:39:24;6.68;;;4.43;;
20802;SDS011;10562;-33.856;151.182;2023-05-18T10:41:55;5.50;;;4.38;;
20802;SDS011;10562;-33.856;151.182;2023-05-18T10:44:28;6.07;;;4.47;;
20802;SDS011;10562;-33.856;151.182;2023-05-18T10:47:00;5.53;;;4.47;;
20802;SDS011;10562;-33.856;151.182;2023-05-18T10:49:33;9.35;;;4.22;;
20802;SDS011;10562;-33.856;151.182;2023-05-18T10:52:05;9.73;;;4.65;;
20802;SDS011;10562;-33.856;151.182;2023-05-18T10:57:10;5.30;;;4.80;;
20802;SDS011;10562;-33.856;151.182;2023-05-18T10:59:42;8.60;;;5.35;;
20802;SDS011;10562;-33.856;151.182;2023-05-18T11:02:15;7.10;;;5.07;;
20802;SDS011;10562;-33.856;151.182;2023-05-18T11:04:51;8.98;;;5.72;;
20802;SDS011;10562;-33.856;151.182;2023-05-18T11:07:22;8.05;;;5.32;;
20802;SDS011;10562;-33.856;151.182;2023-05-18T11:09:55;9.60;;;5.95;;
20802;SDS011;10562;-33.856;151.182;2023-05-18T11:12:29;9.55;;;6.57;;
20802;SDS011;10562;-33.856;151.182;2023-05-18T11:15:01;10.50;;;6.38;;
20802;SDS011;10562;-33.856;151.182;2023-05-18T11:17:32;7.68;;;7.00;;
20802;SDS011;10562;-33.856;151.182;2023-05-18T11:20:15;11.95;;;7.60;;
20802;SDS011;10562;-33.856;151.182;2023-05-18T11:22:46;10.35;;;8.23;;
20802;SDS011;10562;-33.856;151.182;2023-05-18T11:28:11;14.77;;;13.10;;
20802;SDS011;10562;-33.856;151.182;2023-05-18T11:30:48;15.48;;;13.57;;
20802;SDS011;10562;-33.856;151.182;2023-05-18T11:33:23;14.85;;;13.35;;
20802;SDS011;10562;-33.856;151.182;2023-05-18T11:36:08;16.48;;;14.70;;
20802;SDS011;10562;-33.856;151.182;2023-05-18T11:38:49;17.77;;;15.88;;
20802;SDS011;10562;-33.856;151.182;2023-05-18T11:41:28;16.75;;;14.82;;
20802;SDS011;10562;-33.856;151.182;2023-05-18T11:46:53;20.10;;;16.27;;
20802;SDS011;10562;-33.856;151.182;2023-05-18T11:49:29;19.95;;;17.85;;
20802;SDS011;10562;-33.856;151.182;2023-05-18T11:52:04;19.20;;;17.25;;
20802;SDS011;10562;-33.856;151.182;2023-05-18T11:54:39;22.73;;;19.27;;
20802;SDS011;10562;-33.856;151.182;2023-05-18T11:57:12;22.20;;;20.13;;
20802;SDS011;10562;-33.856;151.182;2023-05-18T11:59:44;22.73;;;20.73;;
20802;SDS011;10562;-33.856;151.182;2023-05-18T12:02:19;22.08;;;20.35;;
20802;SDS011;10562;-33.856;151.182;2023-05-18T12:04:51;29.15;;;25.70;;
20802;SDS011;10562;-33.856;151.182;2023-05-18T12:07:25;25.33;;;23.15;;
20802;SDS011;10562;-33.856;151.182;2023-05-18T12:09:57;25.50;;;23.10;;
20802;SDS011;10562;-33.856;151.182;2023-05-18T12:12:29;27.65;;;24.98;;
20802;SDS011;10562;-33.856;151.182;2023-05-18T12:15:01;27.35;;;24.80;;
20802;SDS011;10562;-33.856;151.182;2023-05-18T12:17:38;29.30;;;26.55;;
20802;SDS011;10562;-33.856;151.182;2023-05-18T12:20:10;41.33;;;37.65;;
20802;SDS011;10562;-33.856;151.182;2023-05-18T12:22:44;30.73;;;27.80;;
20802;SDS011;10562;-33.856;151.182;2023-05-18T12:25:17;28.98;;;26.30;;
20802;SDS011;10562;-33.856;151.182;2023-05-18T12:27:48;29.67;;;26.98;;
20802;SDS011;10562;-33.856;151.182;2023-05-18T12:30:20;27.25;;;24.55;;
20802;SDS011;10562;-33.856;151.182;2023-05-18T12:32:59;26.48;;;23.92;;
20802;SDS011;10562;-33.856;151.182;2023-05-18T12:35:32;24.02;;;20.95;;
20802;SDS011;10562;-33.856;151.182;2023-05-18T12:38:04;21.15;;;19.00;;
20802;SDS011;10562;-33.856;151.182;2023-05-18T12:40:35;14.30;;;12.90;;
20802;SDS011;10562;-33.856;151.182;2023-05-18T12:43:11;14.93;;;13.43;;
20802;SDS011;10562;-33.856;151.182;2023-05-18T12:45:43;15.25;;;13.73;;
20802;SDS011;10562;-33.856;151.182;2023-05-18T12:48:14;14.55;;;13.13;;
20802;SDS011;10562;-33.856;151.182;2023-05-18T12:50:47;14.32;;;13.05;;
20802;SDS011;10562;-33.856;151.182;2023-05-18T12:53:20;14.65;;;13.07;;
20802;SDS011;10562;-33.856;151.182;2023-05-18T12:55:57;13.40;;;12.20;;
20802;SDS011;10562;-33.856;151.182;2023-05-18T12:58:34;13.32;;;12.02;;
20802;SDS011;10562;-33.856;151.182;2023-05-18T13:01:08;13.02;;;11.35;;
20802;SDS011;10562;-33.856;151.182;2023-05-18T13:03:39;14.43;;;13.05;;
20802;SDS011;10562;-33.856;151.182;2023-05-18T13:06:10;13.07;;;11.95;;
20802;SDS011;10562;-33.856;151.182;2023-05-18T13:08:43;14.20;;;12.98;;
20802;SDS011;10562;-33.856;151.182;2023-05-18T13:11:13;17.58;;;16.08;;
20802;SDS011;10562;-33.856;151.182;2023-05-18T13:13:57;12.32;;;11.15;;
20802;SDS011;10562;-33.856;151.182;2023-05-18T13:16:28;12.60;;;11.40;;
20802;SDS011;10562;-33.856;151.182;2023-05-18T13:19:00;12.20;;;11.05;;
20802;SDS011;10562;-33.856;151.182;2023-05-18T13:21:33;12.85;;;11.77;;
20802;SDS011;10562;-33.856;151.182;2023-05-18T13:24:06;14.23;;;12.93;;
20802;SDS011;10562;-33.856;151.182;2023-05-18T13:26:37;16.65;;;15.13;;
20802;SDS011;10562;-33.856;151.182;2023-05-18T13:29:08;13.73;;;12.60;;
20802;SDS011;10562;-33.856;151.182;2023-05-18T13:31:38;13.68;;;12.57;;
20802;SDS011;10562;-33.856;151.182;2023-05-18T13:34:09;16.92;;;15.43;;
20802;SDS011;10562;-33.856;151.182;2023-05-18T13:36:40;14.65;;;13.27;;
20802;SDS011;10562;-33.856;151.182;2023-05-18T13:39:13;15.82;;;14.52;;
20802;SDS011;10562;-33.856;151.182;2023-05-18T13:41:43;15.50;;;14.20;;
20802;SDS011;10562;-33.856;151.182;2023-05-18T13:44:14;12.52;;;11.52;;
20802;SDS011;10562;-33.856;151.182;2023-05-18T13:46:45;12.90;;;11.77;;
20802;SDS011;10562;-33.856;151.182;2023-05-18T13:49:16;11.63;;;10.73;;
20802;SDS011;10562;-33.856;151.182;2023-05-18T13:51:47;11.25;;;10.30;;
20802;SDS011;10562;-33.856;151.182;2023-05-18T13:54:20;12.40;;;11.40;;
20802;SDS011;10562;-33.856;151.182;2023-05-18T13:56:51;14.00;;;12.90;;
20802;SDS011;10562;-33.856;151.182;2023-05-18T13:59:21;11.13;;;10.13;;
20802;SDS011;10562;-33.856;151.182;2023-05-18T14:01:52;12.35;;;11.20;;
20802;SDS011;10562;-33.856;151.182;2023-05-18T14:04:23;11.93;;;10.80;;
20802;SDS011;10562;-33.856;151.182;2023-05-18T14:06:54;13.27;;;11.95;;
20802;SDS011;10562;-33.856;151.182;2023-05-18T14:09:27;12.10;;;11.00;;
20802;SDS011;10562;-33.856;151.182;2023-05-18T14:11:57;11.90;;;10.70;;
20802;SDS011;10562;-33.856;151.182;2023-05-18T14:14:30;12.18;;;11.00;;
20802;SDS011;10562;-33.856;151.182;2023-05-18T14:17:01;10.70;;;9.63;;
20802;SDS011;10562;-33.856;151.182;2023-05-18T14:19:32;11.25;;;10.13;;
20802;SDS011;10562;-33.856;151.182;2023-05-18T14:22:03;11.07;;;9.98;;
20802;SDS011;10562;-33.856;151.182;2023-05-18T14:24:36;10.77;;;9.70;;
20802;SDS011;10562;-33.856;151.182;2023-05-18T14:27:07;11.70;;;10.57;;
20802;SDS011;10562;-33.856;151.182;2023-05-18T14:29:38;10.35;;;9.45;;
20802;SDS011;10562;-33.856;151.182;2023-05-18T14:32:08;11.00;;;9.90;;
20802;SDS011;10562;-33.856;151.182;2023-05-18T14:34:39;9.20;;;8.30;;
20802;SDS011;10562;-33.856;151.182;2023-05-18T14:37:10;11.57;;;10.52;;
20802;SDS011;10562;-33.856;151.182;2023-05-18T14:39:43;11.43;;;10.45;;
20802;SDS011;10562;-33.856;151.182;2023-05-18T14:42:13;10.15;;;9.27;;